createdAt,value
2018-03-06T00:02:18.230Z,82.00
2018-03-06T00:04:45.920Z,85.97
2018-03-06T00:07:13.651Z,89.32
2018-03-06T00:09:42.389Z,82.25
2018-03-06T00:12:12.070Z,72.97
2018-03-06T00:14:40.838Z,75.32
2018-03-06T00:17:08.752Z,76.82
2018-03-06T00:19:36.289Z,83.53
2018-03-06T00:22:06.261Z,79.72
2018-03-06T00:24:35.569Z,78.72
2018-03-06T00:27:03.129Z,71.43
2018-03-06T00:29:30.853Z,79.03
2018-03-06T00:31:59.281Z,76.20
2018-03-06T00:34:28.941Z,72.22
2018-03-06T00:36:56.656Z,77.87
2018-03-06T00:39:24.384Z,78.25
2018-03-06T00:41:52.116Z,80.62
2018-03-06T00:44:19.828Z,80.85
2018-03-06T00:46:49.091Z,79.40
2018-03-06T00:49:16.805Z,81.85
2018-03-06T00:51:45.313Z,80.97
2018-03-06T00:54:12.858Z,82.45
2018-03-06T00:56:40.562Z,74.53
2018-03-06T00:59:08.103Z,86.85
2018-03-06T01:01:36.020Z,69.32
2018-03-06T01:04:03.593Z,86.63
2018-03-06T01:06:31.313Z,80.05
2018-03-06T01:08:59.372Z,77.47
2018-03-06T01:11:27.322Z,75.53
2018-03-06T01:13:55.041Z,73.85
2018-03-06T01:16:22.622Z,82.60
2018-03-06T01:18:50.344Z,86.47
2018-03-06T01:21:18.074Z,73.03
2018-03-06T01:23:46.949Z,76.72
2018-03-06T01:26:15.292Z,83.28
2018-03-06T01:28:43.887Z,77.25
2018-03-06T01:31:11.426Z,72.75
2018-03-06T01:33:39.162Z,73.90
2018-03-06T01:36:06.877Z,80.30
2018-03-06T01:38:34.589Z,79.45
2018-03-06T01:41:04.324Z,80.65
2018-03-06T01:43:33.251Z,71.22
2018-03-06T01:46:00.985Z,85.30
2018-03-06T01:48:28.521Z,80.90
2018-03-06T01:50:57.359Z,75.68
2018-03-06T01:53:24.886Z,77.47
2018-03-06T01:55:52.618Z,79.75
2018-03-06T01:58:20.389Z,93.93
2018-03-06T02:00:47.917Z,72.25
2018-03-06T02:03:15.871Z,82.78
2018-03-06T02:05:43.595Z,81.40
2018-03-06T02:08:11.486Z,91.50
2018-03-06T02:10:39.352Z,83.53
2018-03-06T02:13:07.087Z,76.37
2018-03-06T02:15:35.158Z,88.75
2018-03-06T02:18:02.741Z,80.07
2018-03-06T02:20:30.451Z,88.47
2018-03-06T02:22:58.193Z,80.90
2018-03-06T02:25:25.909Z,86.90
2018-03-06T02:27:53.621Z,81.03
2018-03-06T02:30:21.144Z,80.62
2018-03-06T02:32:48.863Z,80.32
2018-03-06T02:35:16.580Z,74.45
2018-03-06T02:37:48.689Z,77.87
2018-03-06T02:40:16.220Z,82.53
2018-03-06T02:42:43.934Z,76.53
2018-03-06T02:45:13.376Z,78.07
2018-03-06T02:50:13.740Z,88.60
2018-03-06T02:52:41.477Z,85.00
2018-03-06T02:55:09.032Z,87.60
2018-03-06T02:57:38.436Z,86.07
2018-03-06T03:00:06.989Z,72.78
2018-03-06T03:02:36.410Z,82.18
2018-03-06T03:05:04.149Z,87.00
2018-03-06T03:07:31.674Z,86.35
2018-03-06T03:09:59.395Z,86.63
2018-03-06T03:12:27.141Z,76.22
2018-03-06T03:14:56.490Z,84.72
2018-03-06T03:17:24.205Z,71.43
2018-03-06T03:19:51.735Z,87.53
2018-03-06T03:22:19.266Z,90.93
2018-03-06T03:24:48.561Z,80.15
2018-03-06T03:27:16.276Z,86.82
2018-03-06T03:29:43.804Z,72.18
2018-03-06T03:32:11.835Z,82.37
2018-03-06T03:34:39.559Z,78.78
2018-03-06T03:37:07.259Z,77.72
2018-03-06T03:39:36.901Z,89.60
2018-03-06T03:42:04.189Z,81.25
2018-03-06T03:44:31.906Z,86.47
2018-03-06T03:46:59.630Z,84.20
2018-03-06T03:49:27.152Z,90.82
2018-03-06T03:51:54.873Z,84.22
2018-03-06T03:54:22.585Z,83.07
2018-03-06T03:56:50.292Z,77.37
2018-03-06T03:59:17.748Z,80.43
2018-03-06T04:01:45.452Z,92.03
2018-03-06T04:04:12.982Z,75.80
2018-03-06T04:06:40.709Z,84.53
2018-03-06T04:09:08.409Z,95.10
2018-03-06T04:11:35.945Z,82.60
2018-03-06T04:14:03.712Z,75.82
2018-03-06T04:16:31.437Z,84.85
2018-03-06T04:18:59.200Z,79.78
2018-03-06T04:21:26.778Z,73.00
2018-03-06T04:23:54.493Z,80.82
2018-03-06T04:26:22.022Z,79.65
2018-03-06T04:28:49.734Z,85.72
2018-03-06T04:31:17.260Z,77.35
2018-03-06T04:33:44.978Z,90.85
2018-03-06T04:36:12.694Z,78.37
2018-03-06T04:38:40.407Z,71.37
2018-03-06T04:41:09.118Z,82.45
2018-03-06T04:43:36.824Z,75.20
2018-03-06T04:46:04.352Z,84.32
2018-03-06T04:48:32.054Z,88.22
2018-03-06T04:50:59.788Z,86.37
2018-03-06T04:53:27.509Z,90.97
2018-03-06T04:55:55.028Z,75.18
2018-03-06T04:58:22.738Z,76.30
2018-03-06T05:00:50.604Z,88.87
2018-03-06T05:03:18.317Z,81.70
2018-03-06T05:05:45.851Z,88.97
2018-03-06T05:08:13.560Z,76.95
2018-03-06T05:10:41.270Z,84.40
2018-03-06T05:13:08.990Z,86.65
2018-03-06T05:15:36.701Z,91.37
2018-03-06T05:18:04.418Z,77.00
2018-03-06T05:20:31.946Z,86.68
2018-03-06T05:22:59.668Z,81.30
2018-03-06T05:25:27.372Z,88.72
2018-03-06T05:27:55.077Z,86.10
2018-03-06T05:30:22.609Z,87.35
2018-03-06T05:32:50.325Z,81.93
2018-03-06T05:35:18.028Z,82.40
2018-03-06T05:37:45.735Z,78.80
2018-03-06T05:40:13.080Z,79.40
2018-03-06T05:42:41.484Z,87.43
2018-03-06T05:45:09.202Z,75.65
2018-03-06T05:47:36.915Z,80.70
2018-03-06T05:50:04.645Z,101.62
2018-03-06T05:52:32.369Z,87.95
2018-03-06T05:55:00.071Z,82.78
2018-03-06T05:57:27.781Z,83.12
2018-03-06T05:59:56.512Z,96.53
2018-03-06T06:02:26.141Z,81.32
2018-03-06T06:04:53.876Z,80.32
2018-03-06T06:07:21.558Z,85.57
2018-03-06T06:09:50.267Z,81.68
2018-03-06T06:12:19.015Z,82.03
2018-03-06T06:14:46.727Z,92.60
2018-03-06T06:17:14.240Z,77.10
2018-03-06T06:19:41.761Z,74.43
2018-03-06T06:22:10.309Z,82.37
2018-03-06T06:24:37.862Z,79.05
2018-03-06T06:27:05.566Z,85.70
2018-03-06T06:29:33.285Z,93.70
2018-03-06T06:32:00.805Z,91.55
2018-03-06T06:34:28.348Z,93.40
2018-03-06T06:36:57.801Z,90.65
2018-03-06T06:39:25.315Z,87.07
2018-03-06T06:41:52.829Z,85.62
2018-03-06T06:44:20.347Z,80.93
2018-03-06T06:46:47.906Z,92.07
2018-03-06T06:49:15.565Z,86.55
2018-03-06T06:51:43.080Z,83.50
2018-03-06T06:54:10.610Z,82.82
2018-03-06T06:56:39.128Z,79.18
2018-03-06T06:59:06.641Z,79.87
2018-03-06T07:01:34.157Z,79.62
2018-03-06T07:04:01.666Z,75.07
2018-03-06T07:06:29.169Z,77.30
2018-03-06T07:08:56.685Z,84.45
2018-03-06T07:11:24.198Z,81.22
2018-03-06T07:13:51.714Z,88.60
2018-03-06T07:16:20.242Z,82.90
2018-03-06T07:18:47.757Z,77.57
2018-03-06T07:21:15.303Z,77.22
2018-03-06T07:23:43.031Z,77.37
2018-03-06T07:26:10.706Z,86.15
2018-03-06T07:28:38.230Z,97.57
2018-03-06T07:31:05.737Z,84.78
2018-03-06T07:33:33.252Z,77.93
2018-03-06T07:36:01.768Z,89.90
2018-03-06T07:38:29.277Z,80.20
2018-03-06T07:40:56.789Z,85.10
2018-03-06T07:43:24.305Z,86.43
2018-03-06T07:45:51.814Z,82.30
2018-03-06T07:48:19.328Z,78.50
2018-03-06T07:50:46.840Z,82.20
2018-03-06T07:53:14.349Z,80.25
2018-03-06T07:55:41.855Z,72.57
2018-03-06T07:58:09.364Z,74.62
2018-03-06T08:00:36.931Z,81.68
2018-03-06T08:03:04.596Z,84.53
2018-03-06T08:05:32.105Z,83.68
2018-03-06T08:07:59.608Z,86.72
2018-03-06T08:10:27.112Z,79.95
2018-03-06T08:12:54.621Z,86.03
2018-03-06T08:15:24.050Z,77.53
2018-03-06T08:17:51.598Z,88.15
2018-03-06T08:20:19.276Z,99.07
2018-03-06T08:22:46.782Z,80.80
2018-03-06T08:25:14.289Z,87.10
2018-03-06T08:27:41.805Z,87.37
2018-03-06T08:30:09.322Z,95.85
2018-03-06T08:32:36.852Z,82.03
2018-03-06T08:35:05.401Z,81.70
2018-03-06T08:37:32.924Z,91.43
2018-03-06T08:40:00.437Z,94.35
2018-03-06T08:42:27.954Z,93.00
2018-03-06T08:44:55.474Z,88.12
2018-03-06T08:47:23.021Z,94.82
2018-03-06T08:49:50.344Z,99.57
2018-03-06T08:52:17.856Z,91.53
2018-03-06T08:54:45.366Z,99.93
2018-03-06T08:57:12.878Z,102.62
2018-03-06T08:59:40.394Z,95.78
2018-03-06T09:02:07.910Z,91.80
2018-03-06T09:04:35.416Z,86.65
2018-03-06T09:07:02.921Z,84.72
2018-03-06T09:09:30.444Z,97.40
2018-03-06T09:11:57.968Z,94.75
2018-03-06T09:14:25.481Z,97.30
2018-03-06T09:16:52.984Z,94.03
2018-03-06T09:19:20.490Z,86.55
2018-03-06T09:21:48.007Z,98.55
2018-03-06T09:24:15.509Z,89.37
2018-03-06T09:26:43.024Z,92.97
2018-03-06T09:29:11.377Z,102.25
2018-03-06T09:31:38.893Z,93.82
2018-03-06T09:34:06.400Z,98.90
2018-03-06T09:36:33.913Z,95.87
2018-03-06T09:39:01.428Z,98.95
2018-03-06T09:41:28.936Z,85.60
2018-03-06T09:43:56.447Z,90.45
2018-03-06T09:46:24.966Z,96.57
2018-03-06T09:48:53.440Z,81.60
2018-03-06T09:51:21.990Z,100.05
2018-03-06T09:53:49.493Z,86.75
2018-03-06T09:56:16.998Z,89.22
2018-03-06T09:58:44.516Z,97.80
2018-03-06T10:01:23.185Z,93.12
2018-03-06T10:03:50.691Z,96.45
2018-03-06T10:06:18.204Z,92.88
2018-03-06T10:08:45.713Z,90.25
2018-03-06T10:11:13.228Z,102.50
2018-03-06T10:13:40.741Z,98.35
2018-03-06T10:16:08.265Z,98.75
2018-03-06T10:18:35.789Z,91.70
2018-03-06T10:21:03.299Z,100.95
2018-03-06T10:23:31.016Z,91.47
2018-03-06T10:25:58.521Z,98.10
2018-03-06T10:28:26.072Z,94.57
2018-03-06T10:30:53.580Z,103.22
2018-03-06T10:33:21.091Z,94.82
2018-03-06T10:35:48.630Z,95.53
2018-03-06T10:38:16.140Z,87.53
2018-03-06T10:40:43.661Z,93.07
2018-03-06T10:43:11.178Z,94.20
2018-03-06T10:45:39.671Z,86.45
2018-03-06T10:48:08.168Z,92.35
2018-03-06T10:50:35.681Z,90.72
2018-03-06T10:53:03.189Z,88.90
2018-03-06T10:55:30.700Z,100.15
2018-03-06T10:57:58.220Z,96.82
2018-03-06T11:00:31.270Z,104.40
2018-03-06T11:02:58.592Z,108.32
2018-03-06T11:05:26.102Z,110.32
2018-03-06T11:07:53.613Z,91.45
2018-03-06T11:10:21.119Z,104.30
2018-03-06T11:12:48.642Z,99.97
2018-03-06T11:15:16.166Z,101.70
2018-03-06T11:17:43.680Z,85.43
2018-03-06T11:20:11.193Z,99.37
2018-03-06T11:22:38.704Z,103.12
2018-03-06T11:25:06.235Z,92.72
2018-03-06T11:27:33.750Z,109.12
2018-03-06T11:30:01.258Z,104.35
2018-03-06T11:32:28.765Z,106.43
2018-03-06T11:34:56.343Z,111.22
2018-03-06T11:37:23.859Z,110.53
2018-03-06T11:39:51.372Z,116.62
2018-03-06T11:42:18.890Z,118.47
2018-03-06T11:44:46.398Z,110.30
2018-03-06T11:47:13.918Z,115.72
2018-03-06T11:49:42.429Z,114.37
2018-03-06T11:52:09.941Z,107.55
2018-03-06T11:54:37.457Z,110.35
2018-03-06T11:57:04.995Z,100.05
2018-03-06T11:59:32.509Z,104.12
2018-03-06T12:02:00.065Z,105.37
2018-03-06T12:04:27.743Z,112.40
2018-03-06T12:06:57.207Z,104.05
2018-03-06T12:09:26.819Z,113.62
2018-03-06T12:11:54.345Z,109.55
2018-03-06T12:14:21.864Z,102.50
2018-03-06T12:16:49.394Z,113.50
2018-03-06T12:19:16.908Z,117.70
2018-03-06T12:21:44.416Z,106.00
2018-03-06T12:24:11.929Z,115.20
2018-03-06T12:26:39.463Z,103.57
2018-03-06T12:29:06.977Z,113.70
2018-03-06T12:31:34.497Z,104.78
2018-03-06T12:34:02.016Z,112.43
2018-03-06T12:36:29.527Z,108.25
2018-03-06T12:38:57.041Z,104.97
2018-03-06T12:41:24.552Z,113.28
2018-03-06T12:43:52.060Z,106.47
2018-03-06T12:46:19.635Z,114.90
2018-03-06T12:48:48.276Z,104.28
2018-03-06T12:51:15.785Z,109.87
2018-03-06T12:53:43.296Z,107.35
2018-03-06T12:56:10.833Z,118.03
2018-03-06T12:58:38.337Z,106.37
2018-03-06T13:01:05.860Z,111.70
2018-03-06T13:03:33.368Z,106.95
2018-03-06T13:06:01.884Z,114.57
2018-03-06T13:08:29.397Z,101.12
2018-03-06T13:10:56.913Z,115.53
2018-03-06T13:13:24.426Z,104.03
2018-03-06T13:15:51.957Z,104.05
2018-03-06T13:18:21.384Z,103.12
2018-03-06T13:20:48.933Z,107.37
2018-03-06T13:23:16.444Z,103.43
2018-03-06T13:25:43.974Z,112.93
2018-03-06T13:28:11.501Z,105.07
2018-03-06T13:30:39.026Z,117.32
2018-03-06T13:33:07.541Z,105.22
2018-03-06T13:35:35.065Z,110.10
2018-03-06T13:38:02.608Z,120.10
2018-03-06T13:40:30.118Z,114.35
2018-03-06T13:42:57.634Z,97.12
2018-03-06T13:45:25.148Z,103.68
2018-03-06T13:47:52.681Z,102.05
2018-03-06T13:50:20.946Z,104.07
2018-03-06T13:52:48.491Z,101.30
2018-03-06T13:55:17.962Z,104.70
2018-03-06T13:57:47.405Z,105.90
2018-03-06T14:00:14.940Z,114.32
2018-03-06T14:02:42.448Z,115.47
2018-03-06T14:05:09.952Z,116.32
2018-03-06T14:07:37.475Z,109.55
2018-03-06T14:10:04.990Z,105.90
2018-03-06T14:12:32.507Z,106.43
2018-03-06T14:15:00.025Z,109.50
2018-03-06T14:17:27.554Z,116.03
2018-03-06T14:19:57.045Z,110.00
2018-03-06T14:22:24.566Z,107.57
2018-03-06T14:24:52.081Z,107.45
2018-03-06T14:27:19.593Z,107.43
2018-03-06T14:29:47.113Z,115.28
2018-03-06T14:32:14.681Z,112.45
2018-03-06T14:34:42.348Z,107.93
2018-03-06T14:37:09.865Z,114.20
2018-03-06T14:39:38.229Z,109.80
2018-03-06T14:42:05.738Z,85.38
2018-03-06T14:44:34.045Z,94.35
2018-03-06T14:47:01.561Z,89.45
2018-03-06T14:49:29.071Z,90.00
2018-03-06T14:51:56.583Z,93.40
2018-03-06T14:54:24.103Z,88.18
2018-03-06T14:56:51.604Z,87.28
2018-03-06T14:59:19.129Z,101.82
2018-03-06T15:01:46.636Z,85.82
2018-03-06T15:04:14.154Z,80.03
2018-03-06T15:06:43.601Z,89.93
2018-03-06T15:09:11.118Z,88.75
2018-03-06T15:11:38.636Z,92.85
2018-03-06T15:14:06.152Z,85.07
2018-03-06T15:16:33.680Z,71.12
2018-03-06T15:19:03.149Z,81.65
2018-03-06T15:21:31.060Z,80.03
2018-03-06T15:23:58.578Z,75.03
2018-03-06T15:26:26.108Z,84.70
2018-03-06T15:28:53.644Z,80.20
2018-03-06T15:31:21.156Z,74.62
2018-03-06T15:33:48.663Z,85.55
2018-03-06T15:36:16.205Z,108.22
2018-03-06T15:38:43.717Z,99.68
2018-03-06T15:41:11.252Z,110.85
2018-03-06T15:43:39.777Z,106.82
2018-03-06T15:46:07.292Z,107.70
2018-03-06T15:48:34.816Z,95.03
2018-03-06T15:51:02.331Z,73.50
2018-03-06T15:53:29.856Z,80.80
2018-03-06T15:55:57.369Z,93.75
2018-03-06T15:58:28.800Z,81.43
2018-03-06T16:00:56.121Z,85.75
2018-03-06T16:03:23.627Z,77.20
2018-03-06T16:05:51.129Z,80.18
2018-03-06T16:08:18.636Z,94.62
2018-03-06T16:10:46.150Z,96.28
2018-03-06T16:13:13.668Z,99.75
2018-03-06T16:15:41.187Z,100.18
2018-03-06T16:18:09.685Z,92.78
2018-03-06T16:20:37.176Z,99.55
2018-03-06T16:23:04.680Z,101.78
2018-03-06T16:25:32.189Z,107.90
2018-03-06T16:27:59.709Z,102.35
2018-03-06T16:30:27.257Z,105.90
2018-03-06T16:32:54.765Z,107.00
2018-03-06T16:35:22.291Z,101.45
2018-03-06T16:37:49.816Z,104.28
2018-03-06T16:40:17.338Z,107.95
2018-03-06T16:42:44.863Z,100.93
2018-03-06T16:45:12.476Z,96.32
2018-03-06T16:47:41.904Z,111.50
2018-03-06T16:50:09.455Z,95.57
2018-03-06T16:52:36.985Z,93.40
2018-03-06T16:55:04.538Z,93.55
2018-03-06T16:57:32.051Z,88.25
2018-03-06T16:59:59.389Z,96.78
2018-03-06T17:02:27.914Z,95.60
2018-03-06T17:04:55.249Z,82.65
2018-03-06T17:07:23.938Z,83.82
2018-03-06T17:09:51.850Z,94.25
2018-03-06T17:12:21.298Z,104.32
2018-03-06T17:14:48.811Z,140.75
2018-03-06T17:17:16.337Z,148.35
2018-03-06T17:19:43.855Z,129.12
2018-03-06T17:22:11.373Z,110.10
2018-03-06T17:24:38.892Z,96.25
2018-03-06T17:27:06.413Z,96.53
2018-03-06T17:29:33.916Z,83.70
2018-03-06T17:32:01.438Z,98.20
2018-03-06T17:34:28.960Z,109.85
2018-03-06T17:36:56.481Z,86.00
2018-03-06T17:39:23.982Z,82.43
2018-03-06T17:41:51.497Z,79.55
2018-03-06T17:44:18.997Z,85.12
2018-03-06T17:46:47.507Z,70.68
2018-03-06T17:49:15.014Z,70.12
2018-03-06T17:51:43.512Z,72.62
2018-03-06T17:54:10.831Z,78.62
2018-03-06T17:56:38.408Z,64.72
2018-03-06T17:59:05.924Z,58.38
2018-03-06T18:01:33.424Z,69.45
2018-03-06T18:04:00.928Z,58.92
2018-03-06T18:06:28.435Z,74.62
2018-03-06T18:08:55.946Z,51.88
2018-03-06T18:11:23.459Z,56.40
2018-03-06T18:13:50.980Z,58.53
2018-03-06T18:16:18.536Z,58.50
2018-03-06T18:18:47.047Z,63.97
2018-03-06T18:21:14.565Z,60.70
2018-03-06T18:23:42.077Z,45.75
2018-03-06T18:26:09.614Z,38.40
2018-03-06T18:28:37.120Z,38.60
2018-03-06T18:31:04.633Z,42.08
2018-03-06T18:33:32.150Z,40.47
2018-03-06T18:35:59.651Z,32.40
2018-03-06T18:38:27.188Z,27.50
2018-03-06T18:40:54.709Z,33.97
2018-03-06T18:43:22.220Z,38.25
2018-03-06T18:45:49.728Z,31.27
2018-03-06T18:48:17.235Z,30.15
2018-03-06T18:50:50.405Z,32.65
2018-03-06T18:53:17.996Z,32.60
2018-03-06T18:55:45.508Z,31.90
2018-03-06T18:58:13.017Z,34.42
2018-03-06T19:00:55.205Z,30.95
2018-03-06T19:03:28.401Z,29.67
2018-03-06T19:06:01.489Z,29.63
2018-03-06T19:08:29.200Z,29.10
2018-03-06T19:10:56.733Z,34.10
2018-03-06T19:13:24.236Z,37.13
2018-03-06T19:15:53.703Z,27.35
2018-03-06T19:18:22.251Z,28.45
2018-03-06T19:20:49.770Z,28.83
2018-03-06T19:23:17.294Z,25.73
2018-03-06T19:25:44.804Z,26.23
2018-03-06T19:28:12.321Z,30.02
2018-03-06T19:30:39.838Z,26.00
2018-03-06T19:33:07.361Z,26.05
2018-03-06T19:35:34.882Z,29.77
2018-03-06T19:38:02.393Z,32.85
2018-03-06T19:40:29.927Z,29.27
2018-03-06T19:42:57.440Z,29.55
2018-03-06T19:45:24.944Z,35.08
2018-03-06T19:47:52.450Z,31.15
2018-03-06T19:50:19.964Z,26.55
2018-03-06T19:52:47.477Z,29.73
2018-03-06T19:55:14.993Z,30.42
2018-03-06T19:57:42.318Z,30.52
2018-03-06T20:00:09.848Z,228.77
2018-03-06T20:02:37.357Z,35.33
2018-03-06T20:05:04.860Z,30.27
2018-03-06T20:07:32.387Z,37.47
2018-03-06T20:09:59.910Z,27.55
2018-03-06T20:12:27.412Z,34.55
2018-03-06T20:15:00.301Z,41.45
2018-03-06T20:17:27.820Z,24.10
2018-03-06T20:19:55.368Z,29.30
2018-03-06T20:22:22.871Z,26.10
2018-03-06T20:24:55.793Z,29.37
2018-03-06T20:27:23.292Z,31.12
2018-03-06T20:29:50.796Z,30.15
2018-03-06T20:32:23.789Z,30.58
2018-03-06T20:34:51.292Z,33.92
2018-03-06T20:37:18.808Z,43.55
2018-03-06T20:39:51.864Z,129.15
2018-03-06T20:42:19.182Z,111.25
2018-03-06T20:44:48.632Z,59.10
2018-03-06T20:47:21.569Z,53.50
2018-03-06T20:49:49.087Z,33.05
2018-03-06T20:52:16.616Z,27.58
2018-03-06T20:54:49.706Z,32.97
2018-03-06T20:57:17.949Z,48.38
2018-03-06T20:59:45.472Z,42.45
2018-03-06T21:02:12.997Z,38.30
2018-03-06T21:04:40.519Z,28.25
2018-03-06T21:07:08.025Z,33.55
2018-03-06T21:09:35.564Z,33.00
2018-03-06T21:12:03.068Z,35.83
2018-03-06T21:14:30.611Z,28.52
2018-03-06T21:16:58.116Z,29.45
2018-03-06T21:19:27.632Z,25.33
2018-03-06T21:21:55.273Z,33.40
2018-03-06T21:24:23.801Z,31.40
2018-03-06T21:26:51.315Z,26.95
2018-03-06T21:29:18.642Z,39.35
2018-03-06T21:31:46.159Z,29.98
2018-03-06T21:34:13.687Z,29.05
2018-03-06T21:36:41.202Z,24.27
2018-03-06T21:39:08.732Z,25.23
2018-03-06T21:41:36.226Z,29.08
2018-03-06T21:44:03.733Z,27.70
2018-03-06T21:46:31.257Z,26.48
2018-03-06T21:48:58.764Z,24.87
2018-03-06T21:51:26.269Z,29.80
2018-03-06T21:53:53.782Z,24.63
2018-03-06T21:56:21.311Z,24.50
2018-03-06T21:58:48.834Z,28.08
2018-03-06T22:01:16.101Z,26.62
2018-03-06T22:03:43.612Z,28.90
2018-03-06T22:06:11.134Z,27.45
2018-03-06T22:08:38.659Z,27.27
2018-03-06T22:11:06.163Z,26.27
2018-03-06T22:13:33.670Z,26.87
2018-03-06T22:16:01.470Z,23.80
2018-03-06T22:18:29.005Z,28.62
2018-03-06T22:20:56.527Z,29.77
2018-03-06T22:23:24.041Z,27.33
2018-03-06T22:25:51.584Z,29.33
2018-03-06T22:28:19.108Z,29.83
2018-03-06T22:30:46.625Z,29.42
2018-03-06T22:33:16.062Z,32.45
2018-03-06T22:35:43.589Z,27.48
2018-03-06T22:38:11.112Z,27.67
2018-03-06T22:40:38.637Z,29.92
2018-03-06T22:43:06.164Z,29.40
2018-03-06T22:45:33.707Z,28.90
2018-03-06T22:48:03.165Z,27.00
2018-03-06T22:50:30.699Z,27.23
2018-03-06T22:52:58.203Z,28.98
2018-03-06T22:55:26.220Z,29.87
2018-03-06T22:57:53.740Z,29.45
2018-03-06T23:00:21.244Z,27.23
2018-03-06T23:02:48.781Z,29.23
2018-03-06T23:05:16.464Z,28.42
2018-03-06T23:07:43.974Z,29.67
2018-03-06T23:10:11.474Z,30.02
2018-03-06T23:12:38.985Z,25.12
2018-03-06T23:15:06.493Z,27.00
2018-03-06T23:17:34.001Z,27.92
2018-03-06T23:20:01.529Z,28.25
2018-03-06T23:22:29.068Z,27.92
2018-03-06T23:24:57.406Z,24.23
2018-03-06T23:27:26.853Z,23.73
2018-03-06T23:29:55.348Z,27.20
2018-03-06T23:32:22.854Z,23.25
2018-03-06T23:34:50.370Z,25.12
2018-03-06T23:37:17.891Z,30.67
2018-03-06T23:39:45.421Z,26.67
2018-03-06T23:42:12.922Z,30.08
2018-03-06T23:44:40.427Z,26.05
2018-03-06T23:47:07.931Z,25.40
2018-03-06T23:49:37.377Z,24.50
2018-03-06T23:52:04.893Z,29.02
2018-03-06T23:54:32.403Z,22.83
2018-03-06T23:56:59.917Z,25.02
2018-03-06T23:59:27.430Z,27.13
